Terminal Aerodrome Forecast
Issued by NWS Knoxville/Tri Cities, TN

Home | Current Version | Previous Version | Text Only | Print | Product List | Glossary On
Versions: 1 2 3 4 5 6 7 8 9 10 11 12 13 14
000
FTUS44 KMRX 201134
TAFTYS
TAF
KTYS 201134Z 2012/2112 VRB02KT 5SM BR SCT120 BKN250
      TEMPO 2012/2013 1SM BR SCT002
     FM201330 VRB04KT P6SM SCT250
     FM210400 VRB02KT P6SM FEW060 BKN250=

USA.gov is the U.S. government's official web portal to all federal, state and local government web resources and services.